Weather History for Camden, AR

Change the Weather History Date:

Sunday, January 13, 2013

  Actual Average Record
Temperature  
Mean Temperature 46 °F -  
Max Temperature 59 °F 48 °F 74 °F (1960)
Min Temperature 32 °F 28 °F 10 °F (2011)
Degree Days  
Heating Degree Days 19    
Moisture  
Dew Point 38 °F    
Average Humidity 87    
Maximum Humidity 94    
Minimum Humidity 71    
Precipitation  
Precipitation 0.39 in - - ()
Sea Level Pressure  
Sea Level Pressure 30.05 in    
Wind  
Wind Speed 9 mph (North)    
Max Wind Speed 16 mph    
Max Gust Speed 20 mph    
Visibility 8 miles    
Events Rain    
Averages and records for this station are not official NWS values.
T = Trace of Precipitation, MM = Missing Value Source: NWS Daily Summary

Daily Weather History Graph

Daily Weather History Graph

Search for Another Location

Airport:

Trip Planner

Search our weather history database for the weather conditions in past years. The results will help you decide how hot, cold, wet, or windy it might be!

Date:

Astronomy

Jan. 13, 2013 Rise Set
Actual Time 7:15 AM CST 5:24 PM CST
Civil Twilight 6:48 AM CST 5:51 PM CST
Nautical Twilight 6:18 AM CST 6:21 PM CST
Astronomical Twilight 5:48 AM CST 6:51 PM CST
Moon 8:22 AM CST (1/13) 7:53 PM CST (1/13)
Length of Visible Light 11h 02m
Length of Day
10h 08m
Waxing Crescent, 5% of the Moon is Illuminated
Jan 13
Waxing Crescent
Jan 18
First Quarter
Jan 26
Full
Feb 3
Last Quarter
Feb 10
New

Hourly Weather History & Observations

Time (CST) Temp. Windchill Dew Point Humidity Pressure Visibility Wind Dir Wind Speed Gust Speed Precip Events Conditions
12:15 AM 59.0 °F - 55.4 °F 88% 29.76 in 10.0 mi NNW 16.1 mph 19.6 mph N/A   Overcast
12:35 AM 53.6 °F - 50.0 °F 88% 29.78 in 10.0 mi NNW 15.0 mph - N/A   Overcast
12:55 AM 50.0 °F - 48.2 °F 94% 29.78 in 10.0 mi NNW 10.4 mph 19.6 mph N/A Rain Light Rain
1:15 AM 50.0 °F - 48.2 °F 94% 29.82 in 2.0 mi NNW 4.6 mph - 0.09 in Rain Heavy Rain
1:35 AM 50.0 °F - 46.4 °F 87% 29.81 in 3.0 mi NNW 11.5 mph - 0.15 in Rain Light Rain
1:55 AM 48.2 °F - 46.4 °F 93% 29.83 in 3.0 mi NNW 11.5 mph - 0.18 in Rain Heavy Rain
2:15 AM 48.2 °F - 44.6 °F 87% 29.85 in 3.0 mi NNW 11.5 mph - 0.03 in Rain Heavy Rain
2:35 AM 46.4 °F 41.5 °F 44.6 °F 93% 29.87 in 9.0 mi NNW 10.4 mph - 0.05 in Rain Light Rain
2:55 AM 46.4 °F - 44.6 °F 93% 29.88 in 5.0 mi Calm Calm - 0.06 in Rain Rain
3:15 AM 46.4 °F 44.3 °F 44.6 °F 93% 29.89 in 5.0 mi NNE 4.6 mph - 0.01 in Rain Rain
3:35 AM 46.4 °F 41.9 °F 44.6 °F 93% 29.88 in 5.0 mi North 9.2 mph - 0.01 in Rain Light Rain
3:55 AM 46.4 °F 41.5 °F 42.8 °F 87% 29.87 in 10.0 mi North 10.4 mph 16.1 mph 0.01 in Rain Light Rain
4:15 AM 46.4 °F 42.4 °F 42.8 °F 87% 29.90 in 8.0 mi NW 8.1 mph - N/A Rain Light Rain
4:35 AM 44.6 °F 40.2 °F 42.8 °F 93% 29.87 in 10.0 mi North 8.1 mph 16.1 mph 0.01 in Rain Light Rain
4:55 AM 44.6 °F 38.8 °F 41.0 °F 87% 29.88 in 10.0 mi North 11.5 mph - 0.01 in Rain Light Rain
5:15 AM 42.8 °F 36.6 °F 39.2 °F 87% 29.93 in 10.0 mi NNW 11.5 mph 19.6 mph N/A Rain Light Rain
5:35 AM 41.0 °F 35.2 °F 37.4 °F 87% 29.94 in 7.0 mi North 9.2 mph 19.6 mph N/A Rain Light Rain
5:55 AM 41.0 °F 36.4 °F 37.4 °F 87% 30.01 in 3.0 mi NNW 6.9 mph 18.4 mph 0.06 in Rain Heavy Rain
6:15 AM 41.0 °F 34.3 °F 37.4 °F 87% 29.94 in 4.0 mi North 11.5 mph 16.1 mph 0.02 in Rain Light Rain
6:35 AM 41.0 °F 34.7 °F 37.4 °F 87% 29.95 in 10.0 mi North 10.4 mph - 0.02 in   Overcast
6:55 AM 41.0 °F 36.4 °F 37.4 °F 87% 29.93 in 10.0 mi North 6.9 mph - 0.02 in Rain Light Rain
7:15 AM 41.0 °F 36.4 °F 37.4 °F 87% 29.97 in 7.0 mi North 6.9 mph 18.4 mph N/A Rain Light Rain
7:35 AM 41.0 °F 34.7 °F 37.4 °F 87% 30.00 in 3.0 mi NNW 10.4 mph - 0.02 in Rain Heavy Rain
7:55 AM 39.2 °F 33.0 °F 37.4 °F 93% 29.98 in 4.0 mi North 9.2 mph 18.4 mph 0.02 in Rain Light Rain
8:15 AM 39.2 °F 34.2 °F 37.4 °F 93% 30.02 in 1.8 mi NNW 6.9 mph - 0.01 in Rain Heavy Rain
8:35 AM 39.2 °F 33.6 °F 37.4 °F 93% 30.00 in 10.0 mi North 8.1 mph - 0.01 in   Overcast
8:55 AM 39.2 °F 34.2 °F 37.4 °F 93% 30.04 in 3.0 mi North 6.9 mph - 0.03 in Rain Rain
9:15 AM 39.2 °F 37.0 °F 37.4 °F 93% 30.04 in 6.0 mi North 3.5 mph - N/A Rain Light Rain
9:35 AM 41.0 °F 37.1 °F 37.4 °F 87% 30.06 in 10.0 mi North 5.8 mph - N/A   Overcast
9:55 AM 41.0 °F 38.0 °F 37.4 °F 87% 30.06 in 10.0 mi North 4.6 mph - N/A   Overcast
10:15 AM 41.0 °F 36.4 °F 37.4 °F 87% 30.06 in 10.0 mi North 6.9 mph - N/A Rain Light Rain
10:35 AM 41.0 °F 35.8 °F 37.4 °F 87% 30.07 in 3.0 mi North 8.1 mph - N/A Rain Rain
10:55 AM 41.0 °F 34.7 °F 39.2 °F 93% 30.08 in 10.0 mi NNW 10.4 mph - N/A   Overcast
11:15 AM 41.0 °F 35.2 °F 37.4 °F 87% 30.07 in 10.0 mi NNW 9.2 mph - N/A Rain Light Rain
11:55 AM 41.0 °F 35.8 °F 37.4 °F 87% 30.06 in 10.0 mi NNW 8.1 mph - N/A   Overcast
12:15 PM 41.0 °F 34.7 °F 37.4 °F 87% 30.06 in 10.0 mi NNW 10.4 mph - N/A   Overcast
12:35 PM 42.8 °F 36.6 °F 37.4 °F 81% 30.06 in 10.0 mi NNW 11.5 mph 17.3 mph N/A   Overcast
12:55 PM 42.8 °F 40.1 °F 39.2 °F 87% 30.06 in 10.0 mi NW 4.6 mph - N/A   Overcast
1:15 PM 42.8 °F 38.0 °F 37.4 °F 81% 30.07 in 10.0 mi NW 8.1 mph - N/A   Overcast
1:35 PM 41.0 °F 35.2 °F 37.4 °F 87% 30.08 in 9.0 mi NW 9.2 mph - N/A   Overcast
1:55 PM 41.0 °F 34.7 °F 35.6 °F 81% 30.10 in 8.0 mi NW 10.4 mph 17.3 mph N/A   Overcast
2:15 PM 41.0 °F 34.3 °F 35.6 °F 81% 30.12 in 8.0 mi NNW 11.5 mph 18.4 mph N/A   Overcast
2:35 PM 41.0 °F 34.7 °F 35.6 °F 81% 30.12 in 9.0 mi NNW 10.4 mph 16.1 mph N/A   Overcast
2:55 PM 42.8 °F 35.8 °F 35.6 °F 76% 30.13 in 9.0 mi North 13.8 mph - N/A   Overcast
3:15 PM 41.0 °F 35.2 °F 35.6 °F 81% 30.14 in 10.0 mi North 9.2 mph - N/A   Overcast
3:35 PM 41.0 °F 36.4 °F 35.6 °F 81% 30.15 in 10.0 mi NNW 6.9 mph - N/A   Overcast
3:55 PM 42.8 °F 40.1 °F 35.6 °F 76% 30.15 in 10.0 mi North 4.6 mph - N/A   Mostly Cloudy
4:15 PM 44.6 °F 40.2 °F 35.6 °F 71% 30.15 in 10.0 mi North 8.1 mph - N/A   Scattered Clouds
4:35 PM 44.6 °F 41.4 °F 35.6 °F 71% 30.15 in 10.0 mi NNE 5.8 mph - N/A   Partly Cloudy
5:15 PM 41.0 °F 38.0 °F 35.6 °F 81% 30.17 in 10.0 mi NE 4.6 mph - N/A   Clear
5:35 PM 41.0 °F 38.0 °F 35.6 °F 81% 30.18 in 10.0 mi ENE 4.6 mph - N/A   Partly Cloudy
5:55 PM 39.2 °F 37.0 °F 35.6 °F 87% 30.18 in 10.0 mi NE 3.5 mph - N/A   Partly Cloudy
6:15 PM 39.2 °F 37.0 °F 35.6 °F 87% 30.19 in 10.0 mi North 3.5 mph - N/A   Mostly Cloudy
6:35 PM 37.4 °F 34.9 °F 35.6 °F 93% 30.20 in 10.0 mi North 3.5 mph - N/A   Scattered Clouds
6:55 PM 37.4 °F 34.9 °F 33.8 °F 87% 30.21 in 10.0 mi NNE 3.5 mph - N/A   Clear
7:15 PM 37.4 °F 34.9 °F 33.8 °F 87% 30.21 in 10.0 mi NNE 3.5 mph - N/A   Clear
7:35 PM 35.6 °F - 33.8 °F 93% 30.21 in 10.0 mi Calm Calm - N/A   Clear
7:55 PM 35.6 °F - 33.8 °F 93% 30.21 in 9.0 mi Calm Calm - N/A   Clear
8:15 PM 35.6 °F - 32.0 °F 87% 30.22 in 5.0 mi Calm Calm - N/A   Clear
8:35 PM 33.8 °F - 32.0 °F 93% 30.22 in 5.0 mi Calm Calm - N/A   Mostly Cloudy
8:55 PM 35.6 °F - 32.0 °F 87% 30.24 in 4.0 mi Calm Calm - N/A   Overcast
9:15 PM 35.6 °F - 33.8 °F 93% 30.24 in 6.0 mi Calm Calm - N/A   Overcast
9:35 PM 35.6 °F 31.7 °F 32.0 °F 87% 30.24 in 7.0 mi North 4.6 mph - N/A   Mostly Cloudy
9:55 PM 35.6 °F 28.0 °F 32.0 °F 87% 30.25 in 10.0 mi NNE 10.4 mph - N/A   Clear
10:55 PM 33.8 °F 28.6 °F 30.2 °F 87% 30.27 in 10.0 mi North 5.8 mph - N/A   Clear
11:35 PM 32.0 °F 24.8 °F 28.4 °F 87% 30.27 in 10.0 mi NNE 8.1 mph - N/A   Clear